createdAt,value
2022-08-05T01:39:14.049Z,2.35
2022-08-05T02:36:23.334Z,2.22
2022-08-05T02:49:11.114Z,2.08
2022-08-05T03:10:40.592Z,2.03
2022-08-05T03:27:58.892Z,2.88
2022-08-05T03:32:07.843Z,3.00
2022-08-05T03:44:51.643Z,2.30
2022-08-05T03:57:42.357Z,2.35
2022-08-05T04:50:11.070Z,2.90
2022-08-05T05:06:39.594Z,2.92
2022-08-05T05:10:04.562Z,2.97
2022-08-05T05:23:39.127Z,2.80
2022-08-05T05:27:55.980Z,2.90
2022-08-05T05:31:59.061Z,3.13
2022-08-05T05:36:01.870Z,2.83
2022-08-05T05:40:05.074Z,2.97
2022-08-05T05:44:35.545Z,3.20
2022-08-05T05:48:35.826Z,3.20
2022-08-05T05:52:40.723Z,3.13
2022-08-05T05:56:49.330Z,3.10
2022-08-05T06:00:52.834Z,2.97
2022-08-05T06:04:57.225Z,3.35
2022-08-05T06:09:01.194Z,3.25
2022-08-05T06:13:06.200Z,3.78
2022-08-05T06:17:22.494Z,3.30
2022-08-05T06:21:35.681Z,3.40
2022-08-05T06:26:12.620Z,3.22
2022-08-05T06:30:02.833Z,3.40
2022-08-05T06:34:10.420Z,3.42
2022-08-05T06:38:13.743Z,4.38
2022-08-05T06:42:17.351Z,3.50
2022-08-05T06:46:21.355Z,3.90
2022-08-05T06:50:25.318Z,3.85
2022-08-05T06:54:28.650Z,3.65
2022-08-05T06:58:36.559Z,3.42
2022-08-05T07:02:44.317Z,3.97
2022-08-05T07:06:47.223Z,3.03
2022-08-05T07:10:54.060Z,3.35
2022-08-05T07:29:00.816Z,3.17
2022-08-05T07:42:33.453Z,2.97
2022-08-05T07:46:37.089Z,3.13
2022-08-05T07:50:40.632Z,2.90
2022-08-05T07:54:49.098Z,3.17
2022-08-05T07:58:54.673Z,2.53
2022-08-05T08:03:13.974Z,3.35
2022-08-05T08:07:22.482Z,2.83
2022-08-05T08:11:47.824Z,2.28
2022-08-05T08:16:49.889Z,2.20
2022-08-05T08:20:43.642Z,2.05
2022-08-05T08:24:51.357Z,2.05
2022-08-05T08:28:59.543Z,2.42
2022-08-05T08:33:13.892Z,2.15
2022-08-05T08:37:20.456Z,2.40
2022-08-05T08:41:50.721Z,2.90
2022-08-05T08:45:57.826Z,2.50
2022-08-05T08:50:31.044Z,2.40
2022-08-05T08:54:28.306Z,2.42
2022-08-05T08:58:43.304Z,2.42
2022-08-05T09:02:52.530Z,2.05
2022-08-05T09:06:55.602Z,2.30
2022-08-05T09:10:59.390Z,2.03
2022-08-05T09:15:05.976Z,2.15
2022-08-05T09:19:10.078Z,2.20
2022-08-05T09:23:21.969Z,2.03
2022-08-05T09:28:05.139Z,1.67
2022-08-05T09:32:45.715Z,2.00
2022-08-05T09:36:55.323Z,1.77
2022-08-05T09:41:08.661Z,1.80
2022-08-05T09:46:04.567Z,2.05
2022-08-05T09:50:02.229Z,2.22
2022-08-05T09:54:10.033Z,2.00
2022-08-05T09:58:15.259Z,1.83
2022-08-05T13:05:07.754Z,1.95
2022-08-05T14:01:36.290Z,1.85
2022-08-05T15:58:35.533Z,1.88
2022-08-05T16:02:49.878Z,1.52
2022-08-05T16:16:03.219Z,2.20
2022-08-05T16:24:41.567Z,2.47
2022-08-05T16:46:23.418Z,1.83
2022-08-05T16:54:51.130Z,2.15
2022-08-05T16:58:56.378Z,2.38
2022-08-05T17:12:00.034Z,1.70
2022-08-05T17:24:56.713Z,1.52
2022-08-05T17:51:01.293Z,1.50
2022-08-05T18:13:12.326Z,1.13
2022-08-05T18:42:43.411Z,1.00
2022-08-05T19:36:02.137Z,1.30
2022-08-05T20:28:26.795Z,1.15
2022-08-05T20:41:12.721Z,1.20
